Time;durP1;ratioP1;P1;durP2;ratioP2;P2;SDS_P1;SDS_P2;PMS_P1;PMS_P2;Temp;Humidity;BMP_temperature;BMP_pressure;BME280_temperature;BME280_humidity;BME280_pressure;Samples;Min_cycle;Max_cycle;Signal;HPM_P1;HPM_P2
2022/03/21 00:02:13;;;;;;;;;;;6.60;99.90;;;;;;5054734;28;19928;-72
2022/03/21 00:04:39;;;;;;;;;;;6.60;99.90;;;;;;5072619;28;20268;-72
2022/03/21 00:07:05;;;;;;;;;;;6.60;99.90;;;;;;5055393;28;20015;-72
2022/03/21 00:09:30;;;;;;;;;;;6.60;99.90;;;;;;5072898;28;19931;-72
2022/03/21 00:11:55;;;;;;;;;;;6.60;99.90;;;;;;5072846;28;19924;-72
2022/03/21 00:14:21;;;;;;;;;;;6.60;99.90;;;;;;5054973;28;20023;-72
2022/03/21 00:16:46;;;;;;;;;;;6.60;99.90;;;;;;5037874;28;20025;-72
2022/03/21 00:19:12;;;;;;;;;;;6.50;99.90;;;;;;5054783;28;20051;-72
2022/03/21 00:21:37;;;;;;;;;;;6.50;99.90;;;;;;5072784;28;19970;-72
2022/03/21 00:24:03;;;;;;;;;;;6.50;99.90;;;;;;5072774;28;19938;-71
2022/03/21 00:26:29;;;;;;;;;;;6.50;99.90;;;;;;5054825;28;19924;-72
2022/03/21 00:28:54;;;;;;;;;;;6.50;99.90;;;;;;5073417;28;20383;-71
2022/03/21 00:31:19;;;;;;;;;;;6.50;99.90;;;;;;5076199;28;20012;-71
2022/03/21 00:33:45;;;;;;;;;;;6.50;99.90;;;;;;5076236;28;19924;-72
2022/03/21 00:36:11;;;;;;;;;;;6.50;99.90;;;;;;5076168;28;20383;-72
2022/03/21 00:38:41;;;;;;;;;;;6.50;99.90;;;;;;5058367;28;20344;-71
2022/03/21 00:41:07;;;;;;;;;;;6.50;99.90;;;;;;5076151;28;20277;-71
2022/03/21 00:43:33;;;;;;;;;;;6.50;99.90;;;;;;5075857;28;19928;-72
2022/03/21 00:45:59;;;;;;;;;;;6.50;99.90;;;;;;5075945;28;19924;-72
2022/03/21 00:48:25;;;;;;;;;;;6.50;99.90;;;;;;5075785;28;19924;-72
2022/03/21 00:50:51;;;;;;;;;;;6.50;99.90;;;;;;5075770;28;19931;-72
2022/03/21 00:53:17;;;;;;;;;;;6.50;99.90;;;;;;5075751;28;19920;-71
2022/03/21 00:55:42;;;;;;;;;;;6.40;99.90;;;;;;5075883;28;20023;-71
2022/03/21 00:58:08;;;;;;;;;;;6.40;99.90;;;;;;5075894;28;20287;-72
2022/03/21 01:00:33;;;;;;;;;;;6.50;99.90;;;;;;5075584;28;19929;-71
2022/03/21 01:03:00;;;;;;;;;;;6.40;99.90;;;;;;5075484;28;19925;-71
2022/03/21 01:05:25;;;;;;;;;;;6.40;99.90;;;;;;5075581;28;19932;-72
2022/03/21 01:07:51;;;;;;;;;;;6.40;99.90;;;;;;5075477;28;20409;-71
2022/03/21 01:10:18;;;;;;;;;;;6.40;99.90;;;;;;5075761;28;19986;-71
2022/03/21 01:12:44;;;;;;;;;;;6.40;99.90;;;;;;5057392;28;20024;-71
2022/03/21 01:15:11;;;;;;;;;;;6.40;99.90;;;;;;5075560;28;19932;-71
2022/03/21 01:17:36;;;;;;;;;;;6.30;99.90;;;;;;5057164;28;19925;-72
2022/03/21 01:20:03;;;;;;;;;;;6.30;99.90;;;;;;5075252;28;20094;-72
2022/03/21 01:22:28;;;;;;;;;;;6.30;99.90;;;;;;5075347;28;19924;-72
2022/03/21 01:24:54;;;;;;;;;;;6.30;99.90;;;;;;5075368;28;19932;-72
2022/03/21 01:27:20;;;;;;;;;;;6.30;99.90;;;;;;5075373;28;20007;-71
2022/03/21 01:29:45;;;;;;;;;;;6.30;99.90;;;;;;5040635;28;20348;-71
2022/03/21 01:32:11;;;;;;;;;;;6.30;99.90;;;;;;5075213;28;19932;-72
2022/03/21 01:34:36;;;;;;;;;;;6.30;99.90;;;;;;5075060;28;20026;-72
2022/03/21 01:37:02;;;;;;;;;;;6.30;99.90;;;;;;5074850;28;20373;-72
2022/03/21 01:39:27;;;;;;;;;;;6.30;99.90;;;;;;5074989;28;20375;-71
2022/03/21 01:41:53;;;;;;;;;;;6.30;99.90;;;;;;5074296;28;20375;-71
2022/03/21 01:44:20;;;;;;;;;;;6.30;99.90;;;;;;5074906;28;19924;-71
2022/03/21 01:46:45;;;;;;;;;;;6.30;99.90;;;;;;5074961;28;19924;-72
2022/03/21 01:49:11;;;;;;;;;;;6.30;99.90;;;;;;5056654;28;19967;-72
2022/03/21 01:51:37;;;;;;;;;;;6.30;99.90;;;;;;5074568;28;19925;-71
2022/03/21 01:56:47;;;;;;;;;;;6.20;99.90;;;;;;5074754;28;19925;-71
2022/03/21 01:59:14;;;;;;;;;;;6.30;99.90;;;;;;5056527;28;19932;-72
2022/03/21 02:01:40;;;;;;;;;;;6.20;99.90;;;;;;5056793;28;19924;-71
2022/03/21 02:04:06;;;;;;;;;;;6.20;99.90;;;;;;5074575;28;19924;-71
2022/03/21 02:06:32;;;;;;;;;;;6.20;99.90;;;;;;5074561;28;19931;-71
2022/03/21 02:08:58;;;;;;;;;;;6.20;99.90;;;;;;5039851;28;19931;-71
2022/03/21 02:11:25;;;;;;;;;;;6.20;99.90;;;;;;5074513;28;19998;-72
2022/03/21 02:13:52;;;;;;;;;;;6.20;99.90;;;;;;5056498;28;20338;-72
2022/03/21 02:16:18;;;;;;;;;;;6.20;99.90;;;;;;5056432;28;20337;-72
2022/03/21 02:18:44;;;;;;;;;;;6.20;99.90;;;;;;5074291;28;20012;-72
2022/03/21 02:21:14;;;;;;;;;;;6.20;99.90;;;;;;5074328;28;19931;-72
2022/03/21 02:23:47;;;;;;;;;;;6.20;99.90;;;;;;5074517;28;19967;-71
2022/03/21 02:26:13;;;;;;;;;;;6.20;99.90;;;;;;5073870;28;19947;-72
2022/03/21 02:28:40;;;;;;;;;;;6.20;99.90;;;;;;5074055;28;19928;-71
2022/03/21 02:31:05;;;;;;;;;;;6.20;99.90;;;;;;5056310;28;19924;-72
2022/03/21 02:33:31;;;;;;;;;;;6.20;99.90;;;;;;5073769;28;20051;-72
2022/03/21 02:35:57;;;;;;;;;;;6.20;99.90;;;;;;5055957;28;20352;-71
2022/03/21 02:38:23;;;;;;;;;;;6.20;99.90;;;;;;5073864;28;20058;-72
2022/03/21 02:40:49;;;;;;;;;;;6.20;99.90;;;;;;5073568;28;20019;-72
2022/03/21 02:43:14;;;;;;;;;;;6.10;99.90;;;;;;5074161;28;20014;-72
2022/03/21 02:45:41;;;;;;;;;;;6.10;99.90;;;;;;5073815;28;19990;-72
2022/03/21 02:48:06;;;;;;;;;;;6.10;99.90;;;;;;5073876;28;19925;-71
2022/03/21 02:50:34;;;;;;;;;;;6.10;99.90;;;;;;5103190;22;20307;-55
2022/03/21 02:53:00;;;;;;;;;;;6.00;99.90;;;;;;5044090;28;20300;-55
2022/03/21 02:55:25;;;;;;;;;;;6.00;99.90;;;;;;5035884;28;20019;-54
2022/03/21 02:57:51;;;;;;;;;;;5.90;99.90;;;;;;5053612;28;20019;-55
2022/03/21 03:00:16;;;;;;;;;;;5.90;99.90;;;;;;5053768;28;19925;-55
2022/03/21 03:02:42;;;;;;;;;;;5.90;99.90;;;;;;5053869;28;19979;-55
2022/03/21 03:05:07;;;;;;;;;;;5.80;99.90;;;;;;5053604;28;19925;-55
2022/03/21 03:07:34;;;;;;;;;;;5.80;99.90;;;;;;5035874;28;19931;-54
2022/03/21 03:10:00;;;;;;;;;;;5.70;99.90;;;;;;5053715;28;19932;-55
2022/03/21 03:12:26;;;;;;;;;;;5.70;99.90;;;;;;5053675;28;19924;-55
2022/03/21 03:14:51;;;;;;;;;;;5.70;99.90;;;;;;5053374;28;20015;-55
2022/03/21 03:17:17;;;;;;;;;;;5.50;99.90;;;;;;5053251;28;19925;-55
2022/03/21 03:19:42;;;;;;;;;;;5.50;99.90;;;;;;5053524;28;19924;-53
2022/03/21 03:22:08;;;;;;;;;;;5.40;99.90;;;;;;5053442;28;19998;-55
2022/03/21 03:24:34;;;;;;;;;;;5.30;99.90;;;;;;5053279;28;19924;-55
2022/03/21 03:27:00;;;;;;;;;;;5.20;99.90;;;;;;5053497;28;19924;-55
2022/03/21 03:29:25;;;;;;;;;;;5.10;99.90;;;;;;5053610;28;19948;-55
2022/03/21 03:31:52;;;;;;;;;;;5.00;99.90;;;;;;5035442;28;20413;-55
2022/03/21 03:34:17;;;;;;;;;;;5.00;99.90;;;;;;5053531;28;19924;-55
2022/03/21 03:36:43;;;;;;;;;;;4.90;99.90;;;;;;5053276;28;19925;-54
2022/03/21 03:39:08;;;;;;;;;;;5.00;99.90;;;;;;5053292;28;19925;-56
2022/03/21 03:41:34;;;;;;;;;;;4.90;99.90;;;;;;5053234;28;19924;-54
2022/03/21 03:44:00;;;;;;;;;;;4.90;99.90;;;;;;5053295;28;19975;-55
2022/03/21 03:46:26;;;;;;;;;;;4.90;99.90;;;;;;5053587;28;20377;-55
2022/03/21 03:48:54;;;;;;;;;;;4.90;99.90;;;;;;5053380;28;19929;-53
2022/03/21 03:51:20;;;;;;;;;;;4.80;99.90;;;;;;5052810;28;19925;-55
2022/03/21 03:53:45;;;;;;;;;;;4.80;99.90;;;;;;5052940;28;19932;-53
2022/03/21 03:56:11;;;;;;;;;;;4.70;99.90;;;;;;5052995;28;19983;-54
2022/03/21 03:58:37;;;;;;;;;;;4.70;99.90;;;;;;5046070;28;19932;-55
2022/03/21 04:01:04;;;;;;;;;;;4.60;99.90;;;;;;5033048;28;19975;-55
2022/03/21 04:03:46;;;;;;;;;;;4.50;99.90;;;;;;5033326;28;20291;-55
2022/03/21 04:06:15;;;;;;;;;;;4.40;99.90;;;;;;5037015;28;19948;-55
2022/03/21 04:08:41;;;;;;;;;;;4.30;99.90;;;;;;5036725;28;20453;-55
2022/03/21 04:11:06;;;;;;;;;;;4.30;99.90;;;;;;5037143;28;20023;-55
2022/03/21 04:13:32;;;;;;;;;;;4.20;99.90;;;;;;5037094;28;19929;-55
2022/03/21 04:15:57;;;;;;;;;;;4.20;99.90;;;;;;5036620;28;20259;-55
2022/03/21 04:18:25;;;;;;;;;;;4.20;99.90;;;;;;5036885;28;20071;-55
2022/03/21 04:20:51;;;;;;;;;;;4.10;99.90;;;;;;5036726;28;19925;-54
2022/03/21 04:23:20;;;;;;;;;;;4.00;99.90;;;;;;5036015;28;19925;-55
2022/03/21 04:25:46;;;;;;;;;;;3.90;99.90;;;;;;5037043;28;20299;-55
2022/03/21 04:28:12;;;;;;;;;;;3.90;99.90;;;;;;5037035;28;19972;-57
2022/03/21 04:30:38;;;;;;;;;;;3.80;99.90;;;;;;5036755;28;19925;-56
2022/03/21 04:33:04;;;;;;;;;;;3.80;99.90;;;;;;5036670;28;19925;-54
2022/03/21 04:35:30;;;;;;;;;;;3.80;99.90;;;;;;5036457;28;20264;-54
2022/03/21 04:37:55;;;;;;;;;;;3.70;99.90;;;;;;5035313;28;19925;-53
2022/03/21 04:40:23;;;;;;;;;;;3.60;99.90;;;;;;5036684;28;20402;-54
2022/03/21 04:42:48;;;;;;;;;;;3.60;99.90;;;;;;5036405;28;20008;-55
2022/03/21 04:45:13;;;;;;;;;;;3.50;99.90;;;;;;5036700;28;20364;-54
2022/03/21 04:47:39;;;;;;;;;;;3.50;99.90;;;;;;5036399;28;20315;-54
2022/03/21 04:50:07;;;;;;;;;;;3.40;99.90;;;;;;5036002;28;19925;-54
2022/03/21 04:52:33;;;;;;;;;;;3.40;99.90;;;;;;5036579;28;20437;-53
2022/03/21 04:54:58;;;;;;;;;;;3.30;99.90;;;;;;5036660;28;19925;-54
2022/03/21 04:57:24;;;;;;;;;;;3.30;99.90;;;;;;5036367;28;20004;-55
2022/03/21 04:59:50;;;;;;;;;;;3.20;99.90;;;;;;5036375;28;19971;-54
2022/03/21 05:02:15;;;;;;;;;;;3.20;99.90;;;;;;5036229;28;19976;-54
2022/03/21 05:04:41;;;;;;;;;;;3.20;99.90;;;;;;5036226;28;19925;-54
2022/03/21 05:07:06;;;;;;;;;;;3.10;99.90;;;;;;5036278;28;19925;-55
2022/03/21 05:09:32;;;;;;;;;;;3.10;99.90;;;;;;5036006;28;19925;-52
2022/03/21 05:11:58;;;;;;;;;;;3.10;99.90;;;;;;5036452;28;19971;-55
2022/03/21 05:14:23;;;;;;;;;;;3.00;99.90;;;;;;5036335;28;20011;-55
2022/03/21 05:16:49;;;;;;;;;;;3.00;99.90;;;;;;5035243;28;19987;-54
2022/03/21 05:19:15;;;;;;;;;;;2.90;99.90;;;;;;5035924;28;19947;-54
2022/03/21 05:21:40;;;;;;;;;;;2.80;99.90;;;;;;5036182;28;19952;-53
2022/03/21 05:32:19;;;;;;;;;;;2.70;99.90;;;;;;5036204;28;19986;-55
2022/03/21 05:37:29;;;;;;;;;;;2.70;99.90;;;;;;5035790;28;19932;-53
2022/03/21 05:42:38;;;;;;;;;;;2.70;99.90;;;;;;5035511;28;19979;-52
2022/03/21 05:45:04;;;;;;;;;;;2.60;99.90;;;;;;5035550;28;19929;-55
2022/03/21 05:47:29;;;;;;;;;;;2.60;99.90;;;;;;5035383;28;19931;-54
2022/03/21 05:49:55;;;;;;;;;;;2.60;99.90;;;;;;5035165;28;19932;-56
2022/03/21 05:52:20;;;;;;;;;;;2.60;99.90;;;;;;5035168;28;20012;-56
2022/03/21 05:54:46;;;;;;;;;;;2.60;99.90;;;;;;5033933;28;20025;-57
2022/03/21 05:57:11;;;;;;;;;;;2.60;99.90;;;;;;5034027;28;19947;-57
2022/03/21 06:02:20;;;;;;;;;;;2.60;99.90;;;;;;5035176;28;19987;-57
2022/03/21 06:04:46;;;;;;;;;;;2.60;99.90;;;;;;5035046;28;19969;-57
2022/03/21 06:07:12;;;;;;;;;;;2.60;99.90;;;;;;5034808;28;20302;-56
2022/03/21 06:09:37;;;;;;;;;;;2.60;99.90;;;;;;5033887;28;19932;-56
2022/03/21 06:12:03;;;;;;;;;;;2.70;99.90;;;;;;5034846;28;19972;-57
2022/03/21 06:14:28;;;;;;;;;;;2.80;99.90;;;;;;5034928;28;20014;-57
2022/03/21 06:16:54;;;;;;;;;;;2.80;99.90;;;;;;5034569;28;19925;-56
2022/03/21 06:19:19;;;;;;;;;;;2.90;99.90;;;;;;5034604;28;19929;-55
2022/03/21 06:21:45;;;;;;;;;;;3.00;99.90;;;;;;5034752;28;20402;-56
2022/03/21 06:24:14;;;;;;;;;;;3.00;99.90;;;;;;5034859;28;19932;-57
2022/03/21 06:26:40;;;;;;;;;;;3.10;99.90;;;;;;5034632;28;19929;-56
2022/03/21 06:29:05;;;;;;;;;;;3.20;99.90;;;;;;5034906;28;19925;-57
2022/03/21 06:31:31;;;;;;;;;;;3.20;99.90;;;;;;5034707;28;20016;-56
2022/03/21 06:33:56;;;;;;;;;;;3.30;99.90;;;;;;5035208;28;20429;-57
2022/03/21 06:36:22;;;;;;;;;;;3.40;99.90;;;;;;5034452;28;19925;-56
2022/03/21 06:38:48;;;;;;;;;;;3.60;99.90;;;;;;5034459;28;19925;-57
2022/03/21 06:41:15;;;;;;;;;;;4.10;99.90;;;;;;5034599;28;20319;-55
2022/03/21 06:43:41;;;;;;;;;;;;;;;;;;5034558;28;19988;-52
2022/03/21 06:46:07;;;;;;;;;;;6.60;99.90;;;;;;5034376;28;20328;-56
2022/03/21 06:48:34;;;;;;;;;;;6.50;99.90;;;;;;5034465;28;19925;-55
2022/03/21 06:50:59;;;;;;;;;;;7.30;99.90;;;;;;5033931;28;19932;-57
2022/03/21 06:53:25;;;;;;;;;;;7.70;99.90;;;;;;5034340;28;19925;-55
2022/03/21 06:55:50;;;;;;;;;;;8.20;99.90;;;;;;5034169;28;19932;-55
2022/03/21 06:58:16;;;;;;;;;;;8.60;99.90;;;;;;5034038;28;19971;-54
2022/03/21 07:00:42;;;;;;;;;;;9.20;99.90;;;;;;5034010;28;19964;-55
2022/03/21 07:03:08;;;;;;;;;;;9.60;99.90;;;;;;5034110;28;19952;-55
2022/03/21 07:05:36;;;;;;;;;;;9.90;99.90;;;;;;5033800;28;19925;-55
2022/03/21 07:08:03;;;;;;;;;;;10.00;99.90;;;;;;5034141;28;19932;-55
2022/03/21 07:10:28;;;;;;;;;;;10.20;99.90;;;;;;5033951;28;19926;-55
2022/03/21 07:12:54;;;;;;;;;;;10.60;99.90;;;;;;5033960;28;19987;-54
2022/03/21 07:15:19;;;;;;;;;;;10.20;99.90;;;;;;5033809;28;20326;-55
2022/03/21 07:17:45;;;;;;;;;;;9.80;99.90;;;;;;5033618;28;19932;-55
2022/03/21 07:20:11;;;;;;;;;;;9.20;99.90;;;;;;5033416;28;19925;-55
2022/03/21 07:22:36;;;;;;;;;;;8.90;99.90;;;;;;5033728;28;19964;-55
2022/03/21 07:25:02;;;;;;;;;;;8.60;99.90;;;;;;5033583;28;20399;-55
2022/03/21 07:27:27;;;;;;;;;;;8.50;99.90;;;;;;5032435;28;19925;-55
2022/03/21 07:29:53;;;;;;;;;;;8.40;99.90;;;;;;5033592;28;19932;-55
2022/03/21 07:32:18;;;;;;;;;;;8.30;99.90;;;;;;5033382;28;20276;-55
2022/03/21 07:34:44;;;;;;;;;;;8.10;99.90;;;;;;5032058;28;20004;-55
2022/03/21 07:37:09;;;;;;;;;;;8.10;99.90;;;;;;5033365;28;19932;-55
2022/03/21 07:39:37;;;;;;;;;;;8.00;99.90;;;;;;5032936;28;19925;-55
2022/03/21 07:42:02;;;;;;;;;;;7.90;99.90;;;;;;5033402;28;19932;-54
2022/03/21 07:47:20;;;;;;;;;;;8.00;99.90;;;;;;5033101;28;19933;-52
2022/03/21 07:49:48;;;;;;;;;;;8.20;99.90;;;;;;5033400;28;19925;-55
2022/03/21 07:52:14;;;;;;;;;;;8.20;99.90;;;;;;5033288;28;20398;-55
2022/03/21 07:54:40;;;;;;;;;;;8.30;99.90;;;;;;5033162;28;19925;-55
2022/03/21 07:57:06;;;;;;;;;;;8.30;99.90;;;;;;5033002;28;19925;-55
2022/03/21 07:59:32;;;;;;;;;;;8.30;99.90;;;;;;5033110;28;19948;-55
2022/03/21 08:01:58;;;;;;;;;;;8.50;99.90;;;;;;5032981;28;20418;-54
2022/03/21 08:04:24;;;;;;;;;;;8.60;99.90;;;;;;5033168;28;20011;-55
2022/03/21 08:06:50;;;;;;;;;;;8.70;99.90;;;;;;5033132;28;19979;-55
2022/03/21 08:09:15;;;;;;;;;;;8.80;99.90;;;;;;5032965;28;19926;-55
2022/03/21 08:11:41;;;;;;;;;;;8.90;99.90;;;;;;5033001;28;19925;-55
2022/03/21 08:14:07;;;;;;;;;;;9.10;99.90;;;;;;5032989;28;20403;-55
2022/03/21 08:16:32;;;;;;;;;;;9.10;99.90;;;;;;5033047;28;19979;-55
2022/03/21 08:18:58;;;;;;;;;;;9.30;99.90;;;;;;5033060;28;20969;-55
2022/03/21 08:21:23;;;;;;;;;;;9.40;99.90;;;;;;5032883;28;19926;-54
2022/03/21 08:23:49;;;;;;;;;;;9.50;99.90;;;;;;5032877;28;20402;-55
2022/03/21 08:26:16;;;;;;;;;;;9.60;99.90;;;;;;5033023;28;19925;-55
2022/03/21 08:28:42;;;;;;;;;;;9.70;99.90;;;;;;5032686;28;20050;-55
2022/03/21 08:31:08;;;;;;;;;;;9.80;99.90;;;;;;5033055;28;19925;-55
2022/03/21 08:33:33;;;;;;;;;;;9.90;99.90;;;;;;5032877;28;20079;-55
2022/03/21 08:35:59;;;;;;;;;;;9.90;99.90;;;;;;5032715;28;19955;-54
2022/03/21 08:38:24;;;;;;;;;;;10.00;99.90;;;;;;5032857;28;19925;-55
2022/03/21 08:40:49;;;;;;;;;;;10.10;99.90;;;;;;5032689;28;19971;-55
2022/03/21 08:43:15;;;;;;;;;;;10.30;99.90;;;;;;5032539;28;19929;-55
2022/03/21 08:45:41;;;;;;;;;;;10.40;99.90;;;;;;5032847;28;19931;-55
2022/03/21 08:48:07;;;;;;;;;;;10.50;99.90;;;;;;5032880;28;19925;-55
2022/03/21 08:50:34;;;;;;;;;;;10.60;99.90;;;;;;5032574;28;19925;-55
2022/03/21 08:53:00;;;;;;;;;;;10.80;99.90;;;;;;5036622;28;20264;-55
2022/03/21 08:55:25;;;;;;;;;;;10.90;99.90;;;;;;5036241;28;19932;-55
2022/03/21 08:57:51;;;;;;;;;;;11.00;99.90;;;;;;5036135;28;19998;-55
2022/03/21 09:00:17;;;;;;;;;;;11.10;99.90;;;;;;5036224;28;19955;-56
2022/03/21 09:02:45;;;;;;;;;;;11.20;99.90;;;;;;5036153;28;20434;-55
2022/03/21 09:05:13;;;;;;;;;;;11.20;99.90;;;;;;5036215;28;19932;-55
2022/03/21 09:07:39;;;;;;;;;;;11.30;99.90;;;;;;5036098;28;19971;-54
2022/03/21 09:10:05;;;;;;;;;;;11.50;99.90;;;;;;5035996;28;19925;-55
2022/03/21 09:12:32;;;;;;;;;;;11.30;99.90;;;;;;5035694;28;19968;-55
2022/03/21 09:14:57;;;;;;;;;;;11.50;99.90;;;;;;5036142;28;19925;-55
2022/03/21 09:17:23;;;;;;;;;;;11.60;99.90;;;;;;5035737;28;19979;-55
2022/03/21 09:19:48;;;;;;;;;;;11.60;99.90;;;;;;5035724;28;20415;-55
2022/03/21 09:22:14;;;;;;;;;;;11.70;99.90;;;;;;5035888;28;19925;-54
2022/03/21 09:24:39;;;;;;;;;;;11.90;99.90;;;;;;5035640;28;20391;-55
2022/03/21 09:27:05;;;;;;;;;;;11.90;99.90;;;;;;5035408;28;19978;-55
2022/03/21 09:29:31;;;;;;;;;;;12.10;99.90;;;;;;5035432;28;19925;-54
2022/03/21 09:31:56;;;;;;;;;;;12.20;99.90;;;;;;5035736;28;19925;-55
2022/03/21 09:34:22;;;;;;;;;;;12.40;99.90;;;;;;5035637;28;19929;-55
2022/03/21 09:36:48;;;;;;;;;;;12.50;99.90;;;;;;5035455;28;20383;-55
2022/03/21 09:39:14;;;;;;;;;;;12.60;99.90;;;;;;5035465;28;20966;-55
2022/03/21 09:41:40;;;;;;;;;;;12.60;99.90;;;;;;5035416;28;19925;-55
2022/03/21 09:44:09;;;;;;;;;;;12.50;99.90;;;;;;5035436;28;19932;-55
2022/03/21 09:46:39;;;;;;;;;;;12.60;99.90;;;;;;5035223;28;19925;-54
2022/03/21 09:49:05;;;;;;;;;;;12.60;99.90;;;;;;5035209;28;19925;-55
2022/03/21 09:51:31;;;;;;;;;;;12.90;99.90;;;;;;5034798;28;20016;-55
2022/03/21 09:53:58;;;;;;;;;;;12.80;99.90;;;;;;5035068;28;20395;-54
2022/03/21 09:56:25;;;;;;;;;;;13.10;99.90;;;;;;5034848;28;19926;-55
2022/03/21 09:58:51;;;;;;;;;;;13.20;99.90;;;;;;5035091;28;19979;-54
2022/03/21 10:01:16;;;;;;;;;;;13.30;99.90;;;;;;5034864;28;19925;-54
2022/03/21 10:03:42;;;;;;;;;;;13.30;99.90;;;;;;5034642;28;19925;-54
2022/03/21 10:06:31;;;;;;;;;;;13.40;99.90;;;;;;5034857;28;19932;-55
2022/03/21 10:09:03;;;;;;;;;;;13.30;99.90;;;;;;5034680;28;20024;-55
2022/03/21 10:11:28;;;;;;;;;;;13.40;99.90;;;;;;5034878;28;20016;-55
2022/03/21 10:13:54;;;;;;;;;;;13.50;99.90;;;;;;5034784;28;19968;-54
2022/03/21 10:16:19;;;;;;;;;;;13.40;99.90;;;;;;5034626;28;20027;-55
2022/03/21 10:18:54;;;;;;;;;;;13.40;99.90;;;;;;5034536;28;19925;-54
2022/03/21 10:21:20;;;;;;;;;;;13.60;99.90;;;;;;5034497;28;20391;-55
2022/03/21 10:24:06;;;;;;;;;;;13.60;98.00;;;;;;5034617;28;19925;-55
2022/03/21 10:26:33;;;;;;;;;;;13.90;99.90;;;;;;5033774;28;19925;-56
2022/03/21 10:28:59;;;;;;;;;;;14.00;99.90;;;;;;5034437;28;19925;-56
2022/03/21 10:31:35;;;;;;;;;;;14.10;99.90;;;;;;5034367;28;19978;-55
2022/03/21 10:34:09;;;;;;;;;;;14.20;99.90;;;;;;5034154;28;20400;-56
2022/03/21 10:36:35;;;;;;;;;;;14.20;98.10;;;;;;5034276;28;19932;-56
2022/03/21 10:39:11;;;;;;;;;;;14.30;99.90;;;;;;5034336;28;19925;-55
2022/03/21 10:41:37;;;;;;;;;;;14.30;99.00;;;;;;5034119;28;19925;-54
2022/03/21 10:44:04;;;;;;;;;;;14.40;99.90;;;;;;5033868;28;19925;-55
2022/03/21 10:46:29;;;;;;;;;;;14.30;97.00;;;;;;5034243;28;19932;-56
2022/03/21 10:49:02;;;;;;;;;;;14.50;99.90;;;;;;5034185;28;20008;-55
2022/03/21 10:51:45;;;;;;;;;;;14.60;99.90;;;;;;5033710;28;19929;-56
2022/03/21 10:54:31;;;;;;;;;;;14.60;98.90;;;;;;5034020;28;20272;-55
2022/03/21 10:56:57;;;;;;;;;;;14.70;99.60;;;;;;5033578;28;19925;-56
2022/03/21 10:59:22;;;;;;;;;;;14.80;98.40;;;;;;5033926;28;19933;-56
2022/03/21 11:01:48;;;;;;;;;;;14.70;96.60;;;;;;5033865;28;19929;-56
2022/03/21 11:04:14;;;;;;;;;;;14.80;92.60;;;;;;5033777;28;19925;-56
2022/03/21 11:06:39;;;;;;;;;;;14.80;93.20;;;;;;5033771;28;19972;-56
2022/03/21 11:09:05;;;;;;;;;;;15.00;98.10;;;;;;5033557;28;19929;-55
2022/03/21 11:11:31;;;;;;;;;;;15.00;96.80;;;;;;5033653;28;19925;-56
2022/03/21 11:13:56;;;;;;;;;;;15.10;99.70;;;;;;5033078;28;19929;-56
2022/03/21 11:16:22;;;;;;;;;;;15.10;98.10;;;;;;5033608;28;19931;-55
2022/03/21 11:18:48;;;;;;;;;;;15.00;92.50;;;;;;5033595;28;20008;-56
2022/03/21 11:21:13;;;;;;;;;;;15.20;95.00;;;;;;5033538;28;20337;-55
2022/03/21 11:23:39;;;;;;;;;;;15.10;95.80;;;;;;5033414;28;19932;-55
2022/03/21 11:26:14;;;;;;;;;;;15.20;93.70;;;;;;5033571;28;19925;-55
2022/03/21 11:28:54;;;;;;;;;;;14.90;88.60;;;;;;5033529;28;19932;-56
2022/03/21 11:31:45;;;;;;;;;;;14.90;92.10;;;;;;5033414;28;19964;-56
2022/03/21 11:34:11;;;;;;;;;;;15.20;97.80;;;;;;5033438;28;20003;-56
2022/03/21 11:36:53;;;;;;;;;;;15.30;93.60;;;;;;5033455;28;20015;-55
2022/03/21 11:39:19;;;;;;;;;;;15.30;94.80;;;;;;5033667;28;19979;-55
2022/03/21 11:41:58;;;;;;;;;;;15.50;91.30;;;;;;5033320;28;19929;-56
2022/03/21 11:44:23;;;;;;;;;;;15.40;90.80;;;;;;5033198;28;20029;-56
2022/03/21 11:46:49;;;;;;;;;;;15.50;91.40;;;;;;5033054;28;19969;-56
2022/03/21 11:49:17;;;;;;;;;;;15.50;90.20;;;;;;5033335;28;19979;-56
2022/03/21 11:51:43;;;;;;;;;;;15.40;90.80;;;;;;5032932;28;19929;-55
2022/03/21 11:54:27;;;;;;;;;;;15.30;90.30;;;;;;5033263;28;20007;-56
2022/03/21 11:56:54;;;;;;;;;;;15.50;92.00;;;;;;5033103;28;19926;-56
2022/03/21 11:59:39;;;;;;;;;;;15.40;88.60;;;;;;5033187;28;19924;-56
2022/03/21 12:02:11;;;;;;;;;;;15.50;92.20;;;;;;5032965;28;19925;-55
2022/03/21 12:04:37;;;;;;;;;;;15.70;93.40;;;;;;5033167;28;19976;-56
2022/03/21 12:07:12;;;;;;;;;;;15.70;91.20;;;;;;5032238;28;19933;-55
2022/03/21 12:09:38;;;;;;;;;;;15.90;91.20;;;;;;5032928;28;20367;-56
2022/03/21 12:12:04;;;;;;;;;;;15.90;93.50;;;;;;5033110;28;19994;-56
2022/03/21 12:14:40;;;;;;;;;;;15.80;86.60;;;;;;5033107;28;19925;-56
2022/03/21 12:17:05;;;;;;;;;;;15.70;89.00;;;;;;5032893;28;20384;-56
2022/03/21 12:19:57;;;;;;;;;;;15.80;88.30;;;;;;5032935;28;19925;-56
2022/03/21 12:22:28;;;;;;;;;;;16.00;90.40;;;;;;5033110;28;19932;-56
2022/03/21 12:25:00;;;;;;;;;;;16.00;90.90;;;;;;5033698;28;19925;-56
2022/03/21 12:27:32;;;;;;;;;;;16.00;91.80;;;;;;5036737;28;20015;-56
2022/03/21 12:30:16;;;;;;;;;;;16.20;93.70;;;;;;5036742;28;20008;-55
2022/03/21 12:32:48;;;;;;;;;;;16.10;85.50;;;;;;5036884;28;20016;-56
2022/03/21 12:35:32;;;;;;;;;;;16.20;90.10;;;;;;5036503;28;19947;-56
2022/03/21 12:38:01;;;;;;;;;;;16.30;89.40;;;;;;5036492;28;19976;-56
2022/03/21 12:40:27;;;;;;;;;;;16.20;84.30;;;;;;5036532;28;19972;-56
2022/03/21 12:42:54;;;;;;;;;;;16.40;82.70;;;;;;5036357;28;19936;-56
2022/03/21 12:45:20;;;;;;;;;;;16.40;85.40;;;;;;5036477;28;19931;-56
2022/03/21 12:47:45;;;;;;;;;;;16.50;87.70;;;;;;5036440;28;19925;-56
2022/03/21 12:50:18;;;;;;;;;;;16.50;84.40;;;;;;5036202;28;19931;-56
2022/03/21 12:52:50;;;;;;;;;;;16.50;86.40;;;;;;5036205;28;19925;-56
2022/03/21 12:55:16;;;;;;;;;;;16.50;83.40;;;;;;5036389;28;19922;-56
2022/03/21 12:57:58;;;;;;;;;;;16.70;84.80;;;;;;5034692;28;20387;-56
2022/03/21 13:00:26;;;;;;;;;;;16.70;83.20;;;;;;5036189;28;19971;-56
2022/03/21 13:02:55;;;;;;;;;;;16.60;82.90;;;;;;5035925;28;20513;-55
2022/03/21 13:10:52;;;;;;;;;;;17.00;85.40;;;;;;5035869;28;19932;-56
2022/03/21 13:13:17;;;;;;;;;;;17.00;86.80;;;;;;5035807;28;20291;-56
2022/03/21 13:15:42;;;;;;;;;;;17.10;80.10;;;;;;5035754;28;19925;-56
2022/03/21 13:18:08;;;;;;;;;;;16.80;80.20;;;;;;5035958;28;19925;-55
2022/03/21 13:20:37;;;;;;;;;;;17.10;79.50;;;;;;5035517;28;19925;-56
2022/03/21 13:23:04;;;;;;;;;;;17.10;80.00;;;;;;5035656;28;19932;-55
2022/03/21 13:25:30;;;;;;;;;;;17.30;82.90;;;;;;5035616;28;19925;-56
2022/03/21 13:28:16;;;;;;;;;;;17.30;83.70;;;;;;5035480;28;19925;-56
2022/03/21 13:30:52;;;;;;;;;;;17.20;74.10;;;;;;5035570;28;19925;-56
2022/03/21 13:33:26;;;;;;;;;;;17.20;74.30;;;;;;5035603;28;20373;-56
2022/03/21 13:35:52;;;;;;;;;;;17.30;79.50;;;;;;5035523;28;20399;-56
2022/03/21 13:38:20;;;;;;;;;;;17.20;75.20;;;;;;5034666;28;19976;-56
2022/03/21 13:40:46;;;;;;;;;;;17.20;77.40;;;;;;5035705;28;19925;-56
2022/03/21 13:43:41;;;;;;;;;;;17.10;72.50;;;;;;5017360;28;19925;-56
2022/03/21 13:46:07;;;;;;;;;;;17.10;72.60;;;;;;5018379;28;19926;-56
2022/03/21 13:48:42;;;;;;;;;;;17.20;76.90;;;;;;5035215;28;20331;-56
2022/03/21 13:51:15;;;;;;;;;;;17.30;75.00;;;;;;5035056;28;20367;-56
2022/03/21 13:53:41;;;;;;;;;;;17.30;78.20;;;;;;5035039;28;19921;-56
2022/03/21 13:56:06;;;;;;;;;;;17.40;80.90;;;;;;5035054;28;19929;-56
2022/03/21 13:58:34;;;;;;;;;;;17.20;75.00;;;;;;5034799;28;20068;-56
2022/03/21 14:00:59;;;;;;;;;;;17.40;79.60;;;;;;5034924;28;19929;-56
2022/03/21 14:03:30;;;;;;;;;;;17.50;74.90;;;;;;5034869;28;19932;-56
2022/03/21 14:05:56;;;;;;;;;;;17.30;73.00;;;;;;5034825;28;19925;-56
2022/03/21 14:08:22;;;;;;;;;;;17.30;74.20;;;;;;5034753;28;20019;-56
2022/03/21 14:11:00;;;;;;;;;;;17.50;78.60;;;;;;5034994;28;19925;-56
2022/03/21 14:13:27;;;;;;;;;;;17.60;74.10;;;;;;5034810;28;19988;-56
2022/03/21 14:15:54;;;;;;;;;;;17.50;74.60;;;;;;5034656;28;19991;-56
2022/03/21 14:18:20;;;;;;;;;;;17.30;72.40;;;;;;5034464;28;20294;-56
2022/03/21 14:20:45;;;;;;;;;;;17.40;74.60;;;;;;5034358;28;20011;-55
2022/03/21 14:23:11;;;;;;;;;;;17.20;72.40;;;;;;5034685;28;19979;-56
2022/03/21 14:28:20;;;;;;;;;;;17.50;72.20;;;;;;5034496;28;19971;-56
2022/03/21 14:30:46;;;;;;;;;;;17.50;72.20;;;;;;5034352;28;19973;-56
2022/03/21 14:33:12;;;;;;;;;;;17.30;70.50;;;;;;5034228;28;19925;-56
2022/03/21 14:35:37;;;;;;;;;;;17.40;73.80;;;;;;5034121;28;20012;-56
2022/03/21 14:38:03;;;;;;;;;;;17.50;77.10;;;;;;5034065;28;19994;-56
2022/03/21 14:40:28;;;;;;;;;;;17.50;77.70;;;;;;5034171;28;19925;-56
2022/03/21 14:42:54;;;;;;;;;;;17.40;72.80;;;;;;5034230;28;20016;-56
2022/03/21 14:45:19;;;;;;;;;;;17.40;74.90;;;;;;5034101;28;20011;-56
2022/03/21 14:47:45;;;;;;;;;;;17.50;76.60;;;;;;5034021;28;19932;-56
2022/03/21 14:50:10;;;;;;;;;;;17.40;74.90;;;;;;5033725;28;19986;-56
2022/03/21 14:52:36;;;;;;;;;;;17.40;75.20;;;;;;5033883;28;20399;-56
2022/03/21 14:55:02;;;;;;;;;;;17.30;75.50;;;;;;5034102;28;20303;-56